sensor_id;sensor_type;location;lat;lon;timestamp;pressure;altitude;pressure_sealevel;temperature;humidity
1616;BME280;801;47.982;7.810;2023-04-07T00:01:27;98650.06;;;10.28;85.88
1616;BME280;801;47.982;7.810;2023-04-07T00:03:53;98635.34;;;10.30;86.28
1616;BME280;801;47.982;7.810;2023-04-07T00:06:20;98644.03;;;10.15;87.00
1616;BME280;801;47.982;7.810;2023-04-07T00:08:48;98651.66;;;10.24;86.92
1616;BME280;801;47.982;7.810;2023-04-07T00:11:14;98638.28;;;10.29;86.90
1616;BME280;801;47.982;7.810;2023-04-07T00:13:41;98637.69;;;10.27;87.00
1616;BME280;801;47.982;7.810;2023-04-07T00:16:07;98626.38;;;10.25;86.94
1616;BME280;801;47.982;7.810;2023-04-07T00:18:34;98635.66;;;10.34;86.47
1616;BME280;801;47.982;7.810;2023-04-07T00:21:00;98634.19;;;10.26;86.83
1616;BME280;801;47.982;7.810;2023-04-07T00:23:27;98642.19;;;10.16;86.84
1616;BME280;801;47.982;7.810;2023-04-07T00:25:55;98637.09;;;10.19;87.23
1616;BME280;801;47.982;7.810;2023-04-07T00:28:21;98639.28;;;10.23;86.83
1616;BME280;801;47.982;7.810;2023-04-07T00:30:48;98631.09;;;10.39;86.63
1616;BME280;801;47.982;7.810;2023-04-07T00:33:14;98628.03;;;10.26;87.12
1616;BME280;801;47.982;7.810;2023-04-07T00:35:41;98619.94;;;10.21;87.31
1616;BME280;801;47.982;7.810;2023-04-07T00:38:07;98624.47;;;10.20;87.13
1616;BME280;801;47.982;7.810;2023-04-07T00:40:34;98625.34;;;10.26;86.87
1616;BME280;801;47.982;7.810;2023-04-07T00:43:02;98623.47;;;10.26;86.99
1616;BME280;801;47.982;7.810;2023-04-07T00:45:28;98611.81;;;10.15;87.12
1616;BME280;801;47.982;7.810;2023-04-07T00:47:55;98596.28;;;10.17;87.06
1616;BME280;801;47.982;7.810;2023-04-07T00:50:22;98598.41;;;10.15;87.35
1616;BME280;801;47.982;7.810;2023-04-07T00:52:49;98599.50;;;10.19;87.27
1616;BME280;801;47.982;7.810;2023-04-07T00:55:15;98601.91;;;10.16;87.24
1616;BME280;801;47.982;7.810;2023-04-07T00:57:42;98603.78;;;10.15;87.82
1616;BME280;801;47.982;7.810;2023-04-07T01:00:12;98600.81;;;10.12;87.17
1616;BME280;801;47.982;7.810;2023-04-07T01:02:41;98597.34;;;10.16;87.32
1616;BME280;801;47.982;7.810;2023-04-07T01:05:13;98601.09;;;10.15;87.44
1616;BME280;801;47.982;7.810;2023-04-07T01:07:50;98591.97;;;10.16;87.59
1616;BME280;801;47.982;7.810;2023-04-07T01:10:25;98590.34;;;10.15;87.79
1616;BME280;801;47.982;7.810;2023-04-07T01:12:56;98588.75;;;10.14;87.57
1616;BME280;801;47.982;7.810;2023-04-07T01:15:29;98582.06;;;10.22;87.13
1616;BME280;801;47.982;7.810;2023-04-07T01:18:01;98587.41;;;10.17;87.70
1616;BME280;801;47.982;7.810;2023-04-07T01:20:33;98585.81;;;10.16;87.97
1616;BME280;801;47.982;7.810;2023-04-07T01:23:03;98574.75;;;10.12;87.57
1616;BME280;801;47.982;7.810;2023-04-07T01:25:41;98577.78;;;10.21;87.74
1616;BME280;801;47.982;7.810;2023-04-07T01:28:27;98583.88;;;10.11;87.81
1616;BME280;801;47.982;7.810;2023-04-07T01:31:00;98580.13;;;10.12;87.74
1616;BME280;801;47.982;7.810;2023-04-07T01:33:31;98567.25;;;10.14;87.83
1616;BME280;801;47.982;7.810;2023-04-07T01:35:58;98568.59;;;10.12;88.10
1616;BME280;801;47.982;7.810;2023-04-07T01:38:27;98569.38;;;10.12;88.08
1616;BME280;801;47.982;7.810;2023-04-07T01:40:55;98566.50;;;10.24;87.07
1616;BME280;801;47.982;7.810;2023-04-07T01:43:23;98570.63;;;10.32;87.30
1616;BME280;801;47.982;7.810;2023-04-07T01:45:51;98563.63;;;10.31;87.11
1616;BME280;801;47.982;7.810;2023-04-07T01:48:20;98552.88;;;10.31;87.26
1616;BME280;801;47.982;7.810;2023-04-07T01:50:48;98560.84;;;10.21;87.51
1616;BME280;801;47.982;7.810;2023-04-07T01:53:15;98546.31;;;10.16;88.14
1616;BME280;801;47.982;7.810;2023-04-07T01:55:43;98540.84;;;10.38;87.21
1616;BME280;801;47.982;7.810;2023-04-07T01:58:09;98537.41;;;10.48;86.69
1616;BME280;801;47.982;7.810;2023-04-07T02:00:36;98538.31;;;10.27;87.87
1616;BME280;801;47.982;7.810;2023-04-07T02:03:06;98526.06;;;10.36;87.77
1616;BME280;801;47.982;7.810;2023-04-07T02:05:37;98516.63;;;10.33;87.50
1616;BME280;801;47.982;7.810;2023-04-07T02:08:07;98524.69;;;10.33;87.95
1616;BME280;801;47.982;7.810;2023-04-07T02:10:36;98524.44;;;10.35;87.69
1616;BME280;801;47.982;7.810;2023-04-07T02:13:05;98515.03;;;10.32;87.91
1616;BME280;801;47.982;7.810;2023-04-07T02:15:33;98521.53;;;10.42;87.53
1616;BME280;801;47.982;7.810;2023-04-07T02:18:02;98521.31;;;10.53;86.84
1616;BME280;801;47.982;7.810;2023-04-07T02:20:29;98513.78;;;10.55;86.30
1616;BME280;801;47.982;7.810;2023-04-07T02:22:58;98508.97;;;10.63;86.08
1616;BME280;801;47.982;7.810;2023-04-07T02:25:25;98506.84;;;10.65;85.79
1616;BME280;801;47.982;7.810;2023-04-07T02:27:53;98489.13;;;10.64;87.36
1616;BME280;801;47.982;7.810;2023-04-07T02:30:20;98489.03;;;10.43;88.36
1616;BME280;801;47.982;7.810;2023-04-07T02:32:46;98486.91;;;10.45;88.87
1616;BME280;801;47.982;7.810;2023-04-07T02:35:13;98484.22;;;10.55;87.11
1616;BME280;801;47.982;7.810;2023-04-07T02:37:40;98485.34;;;10.59;87.69
1616;BME280;801;47.982;7.810;2023-04-07T02:40:08;98489.00;;;10.38;90.17
1616;BME280;801;47.982;7.810;2023-04-07T02:42:35;98490.06;;;10.32;93.10
1616;BME280;801;47.982;7.810;2023-04-07T02:45:02;98495.94;;;10.29;93.42
1616;BME280;801;47.982;7.810;2023-04-07T02:47:28;98489.97;;;10.27;94.50
1616;BME280;801;47.982;7.810;2023-04-07T02:49:55;98493.75;;;10.26;95.06
1616;BME280;801;47.982;7.810;2023-04-07T02:52:21;98492.63;;;10.22;96.05
1616;BME280;801;47.982;7.810;2023-04-07T02:54:48;98486.94;;;10.08;97.01
1616;BME280;801;47.982;7.810;2023-04-07T02:57:16;98481.88;;;10.16;96.80
1616;BME280;801;47.982;7.810;2023-04-07T02:59:42;98488.06;;;10.17;96.77
1616;BME280;801;47.982;7.810;2023-04-07T03:02:09;98480.16;;;10.00;98.67
1616;BME280;801;47.982;7.810;2023-04-07T03:04:35;98484.44;;;9.96;99.38
1616;BME280;801;47.982;7.810;2023-04-07T03:07:02;98489.06;;;9.68;99.85
1616;BME280;801;47.982;7.810;2023-04-07T03:09:28;98486.50;;;9.84;99.39
1616;BME280;801;47.982;7.810;2023-04-07T03:11:55;98481.06;;;9.73;100.00
1616;BME280;801;47.982;7.810;2023-04-07T03:14:23;98487.38;;;9.57;100.00
1616;BME280;801;47.982;7.810;2023-04-07T03:16:50;98482.53;;;9.54;100.00
1616;BME280;801;47.982;7.810;2023-04-07T03:19:17;98486.25;;;9.53;100.00
1616;BME280;801;47.982;7.810;2023-04-07T03:21:43;98483.63;;;9.58;100.00
1616;BME280;801;47.982;7.810;2023-04-07T03:24:10;98486.56;;;9.56;100.00
1616;BME280;801;47.982;7.810;2023-04-07T03:26:37;98482.44;;;9.44;100.00
1616;BME280;801;47.982;7.810;2023-04-07T03:29:04;98471.06;;;9.31;100.00
1616;BME280;801;47.982;7.810;2023-04-07T03:31:32;98468.94;;;9.33;100.00
1616;BME280;801;47.982;7.810;2023-04-07T03:33:59;98457.66;;;9.31;100.00
1616;BME280;801;47.982;7.810;2023-04-07T03:36:25;98454.38;;;9.24;100.00
1616;BME280;801;47.982;7.810;2023-04-07T03:38:52;98457.06;;;9.24;100.00
1616;BME280;801;47.982;7.810;2023-04-07T03:41:18;98456.72;;;9.16;100.00
1616;BME280;801;47.982;7.810;2023-04-07T03:43:45;98450.81;;;9.13;100.00
1616;BME280;801;47.982;7.810;2023-04-07T03:46:11;98453.56;;;8.97;100.00
1616;BME280;801;47.982;7.810;2023-04-07T03:48:39;98452.22;;;8.94;100.00
1616;BME280;801;47.982;7.810;2023-04-07T03:51:06;98456.47;;;8.90;100.00
1616;BME280;801;47.982;7.810;2023-04-07T03:53:32;98449.03;;;8.97;100.00
1616;BME280;801;47.982;7.810;2023-04-07T03:55:59;98451.59;;;9.14;100.00
1616;BME280;801;47.982;7.810;2023-04-07T03:58:26;98442.78;;;9.19;100.00
1616;BME280;801;47.982;7.810;2023-04-07T04:00:52;98440.38;;;9.17;100.00
1616;BME280;801;47.982;7.810;2023-04-07T04:03:19;98432.59;;;9.16;100.00
1616;BME280;801;47.982;7.810;2023-04-07T04:05:46;98436.56;;;9.13;100.00
1616;BME280;801;47.982;7.810;2023-04-07T04:08:13;98441.34;;;9.06;100.00
1616;BME280;801;47.982;7.810;2023-04-07T04:10:39;98445.34;;;8.76;100.00
1616;BME280;801;47.982;7.810;2023-04-07T04:13:06;98433.81;;;9.03;100.00
1616;BME280;801;47.982;7.810;2023-04-07T04:15:32;98427.34;;;8.99;100.00
1616;BME280;801;47.982;7.810;2023-04-07T04:17:59;98435.34;;;8.93;100.00
1616;BME280;801;47.982;7.810;2023-04-07T04:20:25;98434.53;;;8.93;100.00
1616;BME280;801;47.982;7.810;2023-04-07T04:22:53;98429.50;;;9.02;100.00
1616;BME280;801;47.982;7.810;2023-04-07T04:25:20;98427.34;;;8.99;100.00
1616;BME280;801;47.982;7.810;2023-04-07T04:27:46;98425.31;;;9.11;100.00
1616;BME280;801;47.982;7.810;2023-04-07T04:30:13;98426.94;;;9.17;100.00
1616;BME280;801;47.982;7.810;2023-04-07T04:32:39;98415.78;;;9.25;100.00
1616;BME280;801;47.982;7.810;2023-04-07T04:35:07;98419.28;;;9.31;100.00
1616;BME280;801;47.982;7.810;2023-04-07T04:37:33;98416.38;;;9.32;100.00
1616;BME280;801;47.982;7.810;2023-04-07T04:40:01;98421.94;;;9.26;100.00
1616;BME280;801;47.982;7.810;2023-04-07T04:42:28;98423.28;;;9.28;100.00
1616;BME280;801;47.982;7.810;2023-04-07T04:44:55;98428.94;;;9.27;100.00
1616;BME280;801;47.982;7.810;2023-04-07T04:47:22;98420.13;;;9.31;100.00
1616;BME280;801;47.982;7.810;2023-04-07T04:49:48;98421.44;;;9.29;100.00
1616;BME280;801;47.982;7.810;2023-04-07T04:52:15;98419.25;;;9.26;100.00
1616;BME280;801;47.982;7.810;2023-04-07T04:54:41;98417.09;;;9.23;100.00
1616;BME280;801;47.982;7.810;2023-04-07T04:57:09;98424.59;;;9.21;100.00
1616;BME280;801;47.982;7.810;2023-04-07T04:59:36;98420.00;;;9.16;100.00
1616;BME280;801;47.982;7.810;2023-04-07T05:02:03;98417.53;;;9.09;100.00
1616;BME280;801;47.982;7.810;2023-04-07T05:04:30;98425.03;;;9.12;100.00
1616;BME280;801;47.982;7.810;2023-04-07T05:06:57;98426.34;;;9.10;100.00
1616;BME280;801;47.982;7.810;2023-04-07T05:09:23;98428.53;;;9.13;100.00
1616;BME280;801;47.982;7.810;2023-04-07T05:11:49;98428.03;;;9.16;100.00
1616;BME280;801;47.982;7.810;2023-04-07T05:14:17;98429.06;;;9.15;100.00
1616;BME280;801;47.982;7.810;2023-04-07T05:16:44;98425.91;;;9.18;100.00
1616;BME280;801;47.982;7.810;2023-04-07T05:19:10;98426.16;;;9.17;100.00
1616;BME280;801;47.982;7.810;2023-04-07T05:21:37;98426.72;;;9.19;100.00
1616;BME280;801;47.982;7.810;2023-04-07T05:24:03;98432.31;;;9.17;100.00
1616;BME280;801;47.982;7.810;2023-04-07T05:26:30;98426.50;;;9.25;100.00
1616;BME280;801;47.982;7.810;2023-04-07T05:28:56;98430.56;;;9.33;100.00
1616;BME280;801;47.982;7.810;2023-04-07T05:31:24;98434.09;;;9.33;100.00
1616;BME280;801;47.982;7.810;2023-04-07T05:33:50;98433.25;;;9.33;100.00
1616;BME280;801;47.982;7.810;2023-04-07T05:36:18;98431.41;;;9.33;100.00
1616;BME280;801;47.982;7.810;2023-04-07T05:38:44;98435.69;;;9.34;100.00
1616;BME280;801;47.982;7.810;2023-04-07T05:41:10;98434.34;;;9.32;100.00
1616;BME280;801;47.982;7.810;2023-04-07T05:43:37;98438.50;;;9.18;100.00
1616;BME280;801;47.982;7.810;2023-04-07T05:46:04;98434.00;;;9.23;100.00
1616;BME280;801;47.982;7.810;2023-04-07T05:48:32;98439.38;;;9.28;100.00
1616;BME280;801;47.982;7.810;2023-04-07T05:50:58;98444.81;;;9.33;100.00
1616;BME280;801;47.982;7.810;2023-04-07T05:53:25;98443.19;;;9.32;100.00
1616;BME280;801;47.982;7.810;2023-04-07T05:55:51;98443.75;;;9.40;100.00
1616;BME280;801;47.982;7.810;2023-04-07T05:58:18;98445.69;;;9.44;100.00
1616;BME280;801;47.982;7.810;2023-04-07T06:00:44;98437.63;;;9.44;100.00
1616;BME280;801;47.982;7.810;2023-04-07T06:03:11;98438.69;;;9.38;100.00
1616;BME280;801;47.982;7.810;2023-04-07T06:05:39;98446.44;;;9.07;100.00
1616;BME280;801;47.982;7.810;2023-04-07T06:08:07;98453.00;;;8.67;100.00
1616;BME280;801;47.982;7.810;2023-04-07T06:10:34;98455.28;;;8.37;100.00
1616;BME280;801;47.982;7.810;2023-04-07T06:13:00;98451.84;;;8.19;100.00
1616;BME280;801;47.982;7.810;2023-04-07T06:15:27;98457.03;;;8.26;100.00
1616;BME280;801;47.982;7.810;2023-04-07T06:17:53;98457.16;;;8.36;100.00
1616;BME280;801;47.982;7.810;2023-04-07T06:20:20;98453.34;;;8.49;100.00
1616;BME280;801;47.982;7.810;2023-04-07T06:22:48;98459.25;;;8.51;100.00
1616;BME280;801;47.982;7.810;2023-04-07T06:25:15;98455.22;;;8.48;100.00
1616;BME280;801;47.982;7.810;2023-04-07T06:27:44;98457.56;;;8.45;100.00
1616;BME280;801;47.982;7.810;2023-04-07T06:30:11;98457.94;;;8.54;100.00
1616;BME280;801;47.982;7.810;2023-04-07T06:32:38;98455.81;;;8.56;100.00
1616;BME280;801;47.982;7.810;2023-04-07T06:35:05;98461.03;;;8.67;100.00
1616;BME280;801;47.982;7.810;2023-04-07T06:37:32;98465.84;;;8.65;100.00
1616;BME280;801;47.982;7.810;2023-04-07T06:40:00;98469.06;;;8.67;100.00
1616;BME280;801;47.982;7.810;2023-04-07T06:42:26;98468.09;;;8.73;100.00
1616;BME280;801;47.982;7.810;2023-04-07T06:44:52;98465.88;;;8.70;100.00
1616;BME280;801;47.982;7.810;2023-04-07T06:47:19;98470.56;;;8.80;100.00
1616;BME280;801;47.982;7.810;2023-04-07T06:49:46;98471.53;;;8.69;100.00
1616;BME280;801;47.982;7.810;2023-04-07T06:52:12;98471.56;;;8.74;100.00
1616;BME280;801;47.982;7.810;2023-04-07T06:54:38;98473.53;;;8.84;100.00
1616;BME280;801;47.982;7.810;2023-04-07T06:57:07;98477.19;;;9.00;100.00
1616;BME280;801;47.982;7.810;2023-04-07T06:59:36;98479.88;;;9.00;100.00
1616;BME280;801;47.982;7.810;2023-04-07T07:02:02;98476.09;;;8.96;100.00
1616;BME280;801;47.982;7.810;2023-04-07T07:04:29;98481.44;;;8.96;100.00
1616;BME280;801;47.982;7.810;2023-04-07T07:06:56;98479.56;;;8.96;100.00
1616;BME280;801;47.982;7.810;2023-04-07T07:09:22;98481.06;;;9.09;100.00
1616;BME280;801;47.982;7.810;2023-04-07T07:11:48;98487.06;;;9.21;100.00
1616;BME280;801;47.982;7.810;2023-04-07T07:14:16;98491.78;;;9.09;100.00
1616;BME280;801;47.982;7.810;2023-04-07T07:16:43;98500.06;;;9.07;100.00
1616;BME280;801;47.982;7.810;2023-04-07T07:19:09;98498.75;;;9.10;100.00
1616;BME280;801;47.982;7.810;2023-04-07T07:21:36;98500.19;;;9.18;100.00
1616;BME280;801;47.982;7.810;2023-04-07T07:24:02;98506.94;;;9.25;100.00
1616;BME280;801;47.982;7.810;2023-04-07T07:26:29;98507.47;;;9.22;100.00
1616;BME280;801;47.982;7.810;2023-04-07T07:28:55;98507.94;;;9.19;100.00
1616;BME280;801;47.982;7.810;2023-04-07T07:31:23;98509.66;;;9.30;100.00
1616;BME280;801;47.982;7.810;2023-04-07T07:33:50;98503.31;;;9.42;100.00
1616;BME280;801;47.982;7.810;2023-04-07T07:36:17;98502.09;;;9.22;100.00
1616;BME280;801;47.982;7.810;2023-04-07T07:38:44;98501.75;;;9.13;100.00
1616;BME280;801;47.982;7.810;2023-04-07T07:41:10;98507.50;;;9.27;100.00
1616;BME280;801;47.982;7.810;2023-04-07T07:43:37;98501.56;;;9.25;100.00
1616;BME280;801;47.982;7.810;2023-04-07T07:46:03;98507.38;;;9.17;100.00
1616;BME280;801;47.982;7.810;2023-04-07T07:48:31;98513.81;;;9.16;100.00
1616;BME280;801;47.982;7.810;2023-04-07T07:50:57;98517.94;;;9.02;100.00
1616;BME280;801;47.982;7.810;2023-04-07T07:53:24;98511.78;;;9.01;100.00
1616;BME280;801;47.982;7.810;2023-04-07T07:55:50;98520.19;;;9.37;100.00
1616;BME280;801;47.982;7.810;2023-04-07T07:58:17;98516.75;;;9.42;100.00
1616;BME280;801;47.982;7.810;2023-04-07T08:00:43;98521.72;;;9.28;100.00
1616;BME280;801;47.982;7.810;2023-04-07T08:03:10;98526.97;;;9.45;100.00
1616;BME280;801;47.982;7.810;2023-04-07T08:05:38;98530.91;;;9.37;100.00
1616;BME280;801;47.982;7.810;2023-04-07T08:08:05;98530.41;;;9.13;100.00
1616;BME280;801;47.982;7.810;2023-04-07T08:10:32;98532.00;;;8.87;100.00
1616;BME280;801;47.982;7.810;2023-04-07T08:12:59;98540.63;;;9.16;100.00
1616;BME280;801;47.982;7.810;2023-04-07T08:15:25;98549.50;;;8.94;100.00
1616;BME280;801;47.982;7.810;2023-04-07T08:17:52;98543.00;;;8.90;100.00
1616;BME280;801;47.982;7.810;2023-04-07T08:20:18;98551.44;;;8.99;100.00
1616;BME280;801;47.982;7.810;2023-04-07T08:22:47;98564.25;;;8.75;100.00
1616;BME280;801;47.982;7.810;2023-04-07T08:25:13;98553.50;;;8.92;100.00
1616;BME280;801;47.982;7.810;2023-04-07T08:27:40;98555.50;;;8.58;100.00
1616;BME280;801;47.982;7.810;2023-04-07T08:30:07;98570.69;;;8.74;100.00
1616;BME280;801;47.982;7.810;2023-04-07T08:32:34;98566.22;;;8.58;100.00
1616;BME280;801;47.982;7.810;2023-04-07T08:35:01;98564.00;;;8.55;100.00
1616;BME280;801;47.982;7.810;2023-04-07T08:37:28;98562.22;;;8.82;100.00
1616;BME280;801;47.982;7.810;2023-04-07T08:39:56;98568.06;;;8.57;100.00
1616;BME280;801;47.982;7.810;2023-04-07T08:42:26;98571.78;;;8.73;100.00
1616;BME280;801;47.982;7.810;2023-04-07T08:44:55;98571.22;;;8.71;100.00
1616;BME280;801;47.982;7.810;2023-04-07T08:47:24;98564.69;;;8.45;100.00
1616;BME280;801;47.982;7.810;2023-04-07T08:49:51;98576.13;;;8.40;100.00
1616;BME280;801;47.982;7.810;2023-04-07T08:52:21;98582.50;;;8.39;100.00
1616;BME280;801;47.982;7.810;2023-04-07T08:54:48;98586.25;;;8.21;100.00
1616;BME280;801;47.982;7.810;2023-04-07T08:57:16;98589.03;;;8.26;100.00
1616;BME280;801;47.982;7.810;2023-04-07T08:59:43;98589.09;;;8.15;100.00
1616;BME280;801;47.982;7.810;2023-04-07T09:02:13;98588.88;;;8.16;100.00
1616;BME280;801;47.982;7.810;2023-04-07T09:04:42;98595.81;;;8.34;100.00
1616;BME280;801;47.982;7.810;2023-04-07T09:07:09;98594.78;;;8.01;100.00
1616;BME280;801;47.982;7.810;2023-04-07T09:09:35;98596.66;;;8.18;100.00
1616;BME280;801;47.982;7.810;2023-04-07T09:12:01;98597.47;;;8.18;100.00
1616;BME280;801;47.982;7.810;2023-04-07T09:14:29;98598.03;;;8.03;100.00
1616;BME280;801;47.982;7.810;2023-04-07T09:16:56;98600.63;;;7.98;100.00
1616;BME280;801;47.982;7.810;2023-04-07T09:19:26;98609.97;;;8.29;100.00
1616;BME280;801;47.982;7.810;2023-04-07T09:21:52;98605.56;;;8.23;100.00
1616;BME280;801;47.982;7.810;2023-04-07T09:24:23;98604.22;;;8.04;100.00
1616;BME280;801;47.982;7.810;2023-04-07T09:26:50;98609.84;;;7.74;100.00
1616;BME280;801;47.982;7.810;2023-04-07T09:29:20;98611.66;;;7.85;100.00
1616;BME280;801;47.982;7.810;2023-04-07T09:31:49;98610.31;;;7.99;100.00
1616;BME280;801;47.982;7.810;2023-04-07T09:34:26;98617.34;;;8.05;100.00
1616;BME280;801;47.982;7.810;2023-04-07T09:36:53;98609.88;;;7.90;100.00
1616;BME280;801;47.982;7.810;2023-04-07T09:39:20;98614.31;;;7.85;100.00
1616;BME280;801;47.982;7.810;2023-04-07T09:41:47;98617.53;;;7.70;100.00
1616;BME280;801;47.982;7.810;2023-04-07T09:44:13;98617.69;;;7.63;100.00
1616;BME280;801;47.982;7.810;2023-04-07T09:46:52;98623.16;;;7.40;100.00
1616;BME280;801;47.982;7.810;2023-04-07T09:49:18;98626.09;;;7.26;100.00
1616;BME280;801;47.982;7.810;2023-04-07T09:51:52;98628.75;;;6.98;100.00
1616;BME280;801;47.982;7.810;2023-04-07T09:54:31;98624.28;;;7.15;100.00
1616;BME280;801;47.982;7.810;2023-04-07T09:56:59;98630.44;;;7.16;100.00
1616;BME280;801;47.982;7.810;2023-04-07T09:59:28;98621.53;;;7.10;100.00
1616;BME280;801;47.982;7.810;2023-04-07T10:01:56;98623.41;;;6.98;100.00
1616;BME280;801;47.982;7.810;2023-04-07T10:04:23;98632.94;;;6.94;100.00
1616;BME280;801;47.982;7.810;2023-04-07T10:06:51;98629.31;;;7.00;100.00
1616;BME280;801;47.982;7.810;2023-04-07T10:09:18;98631.75;;;6.90;100.00
1616;BME280;801;47.982;7.810;2023-04-07T10:11:45;98624.13;;;6.81;100.00
1616;BME280;801;47.982;7.810;2023-04-07T10:14:12;98626.59;;;7.23;100.00
1616;BME280;801;47.982;7.810;2023-04-07T10:16:41;98632.94;;;6.94;100.00
1616;BME280;801;47.982;7.810;2023-04-07T10:19:09;98642.41;;;7.13;100.00
1616;BME280;801;47.982;7.810;2023-04-07T10:21:39;98628.66;;;6.93;100.00
1616;BME280;801;47.982;7.810;2023-04-07T10:24:14;98636.31;;;7.30;100.00
1616;BME280;801;47.982;7.810;2023-04-07T10:26:49;98642.69;;;7.40;100.00
1616;BME280;801;47.982;7.810;2023-04-07T10:29:18;98637.66;;;7.15;100.00
1616;BME280;801;47.982;7.810;2023-04-07T10:31:45;98634.63;;;7.23;100.00
1616;BME280;801;47.982;7.810;2023-04-07T10:34:13;98642.50;;;7.18;100.00
1616;BME280;801;47.982;7.810;2023-04-07T10:37:07;98649.94;;;7.28;100.00
1616;BME280;801;47.982;7.810;2023-04-07T10:39:34;98646.94;;;7.53;100.00
1616;BME280;801;47.982;7.810;2023-04-07T10:42:02;98635.16;;;7.37;100.00
1616;BME280;801;47.982;7.810;2023-04-07T10:44:46;98643.31;;;7.31;100.00
1616;BME280;801;47.982;7.810;2023-04-07T10:47:14;98644.47;;;7.35;100.00
1616;BME280;801;47.982;7.810;2023-04-07T10:52:38;98651.66;;;7.63;100.00
1616;BME280;801;47.982;7.810;2023-04-07T10:55:36;98653.19;;;7.30;100.00
1616;BME280;801;47.982;7.810;2023-04-07T10:58:21;98654.88;;;7.48;100.00
1616;BME280;801;47.982;7.810;2023-04-07T11:01:16;98651.19;;;7.25;100.00
1616;BME280;801;47.982;7.810;2023-04-07T11:03:53;98653.31;;;7.23;100.00
1616;BME280;801;47.982;7.810;2023-04-07T11:06:20;98653.94;;;7.42;100.00
1616;BME280;801;47.982;7.810;2023-04-07T11:08:48;98662.41;;;7.51;100.00
1616;BME280;801;47.982;7.810;2023-04-07T11:11:18;98656.41;;;7.32;100.00
1616;BME280;801;47.982;7.810;2023-04-07T11:13:46;98663.63;;;7.32;100.00
1616;BME280;801;47.982;7.810;2023-04-07T11:16:14;98652.66;;;7.45;100.00
1616;BME280;801;47.982;7.810;2023-04-07T11:18:42;98661.13;;;7.54;100.00
1616;BME280;801;47.982;7.810;2023-04-07T11:21:09;98659.53;;;7.41;100.00
1616;BME280;801;47.982;7.810;2023-04-07T11:23:38;98662.91;;;7.48;100.00
1616;BME280;801;47.982;7.810;2023-04-07T11:26:07;98660.78;;;7.21;100.00
1616;BME280;801;47.982;7.810;2023-04-07T11:28:35;98651.94;;;7.49;100.00
1616;BME280;801;47.982;7.810;2023-04-07T11:31:10;98666.22;;;7.55;100.00
1616;BME280;801;47.982;7.810;2023-04-07T11:33:36;98659.38;;;7.59;100.00
1616;BME280;801;47.982;7.810;2023-04-07T11:36:06;98661.06;;;7.65;100.00
1616;BME280;801;47.982;7.810;2023-04-07T11:38:35;98673.97;;;7.68;100.00
1616;BME280;801;47.982;7.810;2023-04-07T11:41:11;98671.88;;;7.71;100.00
1616;BME280;801;47.982;7.810;2023-04-07T11:43:38;98669.66;;;7.67;100.00
1616;BME280;801;47.982;7.810;2023-04-07T11:46:07;98668.91;;;7.55;100.00
1616;BME280;801;47.982;7.810;2023-04-07T11:48:36;98668.72;;;7.74;100.00
1616;BME280;801;47.982;7.810;2023-04-07T11:51:03;98665.47;;;7.72;100.00
1616;BME280;801;47.982;7.810;2023-04-07T11:53:32;98668.97;;;7.89;100.00
1616;BME280;801;47.982;7.810;2023-04-07T11:56:03;98668.47;;;7.75;100.00
1616;BME280;801;47.982;7.810;2023-04-07T11:58:32;98670.72;;;7.95;100.00
1616;BME280;801;47.982;7.810;2023-04-07T12:01:00;98672.97;;;7.86;100.00
1616;BME280;801;47.982;7.810;2023-04-07T12:03:30;98672.47;;;7.61;100.00
1616;BME280;801;47.982;7.810;2023-04-07T12:05:57;98665.72;;;7.87;100.00
1616;BME280;801;47.982;7.810;2023-04-07T12:08:36;98671.84;;;7.99;100.00
1616;BME280;801;47.982;7.810;2023-04-07T12:11:03;98674.91;;;8.08;100.00
1616;BME280;801;47.982;7.810;2023-04-07T12:13:29;98673.50;;;8.17;100.00
1616;BME280;801;47.982;7.810;2023-04-07T12:15:59;98676.53;;;7.92;100.00
1616;BME280;801;47.982;7.810;2023-04-07T12:18:25;98676.41;;;8.16;100.00
1616;BME280;801;47.982;7.810;2023-04-07T12:20:52;98679.50;;;8.24;100.00
1616;BME280;801;47.982;7.810;2023-04-07T12:23:19;98675.13;;;8.35;100.00
1616;BME280;801;47.982;7.810;2023-04-07T12:25:46;98675.75;;;8.59;100.00
1616;BME280;801;47.982;7.810;2023-04-07T12:28:12;98672.75;;;8.39;100.00
1616;BME280;801;47.982;7.810;2023-04-07T12:30:39;98674.63;;;8.38;100.00
1616;BME280;801;47.982;7.810;2023-04-07T12:33:07;98680.03;;;8.09;100.00
1616;BME280;801;47.982;7.810;2023-04-07T12:35:34;98677.41;;;8.43;100.00
1616;BME280;801;47.982;7.810;2023-04-07T12:38:00;98685.00;;;8.18;100.00
1616;BME280;801;47.982;7.810;2023-04-07T12:40:27;98677.97;;;8.28;100.00
1616;BME280;801;47.982;7.810;2023-04-07T12:42:54;98679.03;;;8.44;100.00
1616;BME280;801;47.982;7.810;2023-04-07T12:45:22;98683.47;;;8.22;100.00
1616;BME280;801;47.982;7.810;2023-04-07T12:47:49;98685.47;;;8.15;100.00
1616;BME280;801;47.982;7.810;2023-04-07T12:50:17;98684.84;;;8.24;100.00
1616;BME280;801;47.982;7.810;2023-04-07T12:52:43;98686.03;;;8.17;100.00
1616;BME280;801;47.982;7.810;2023-04-07T12:55:10;98673.22;;;8.19;100.00
1616;BME280;801;47.982;7.810;2023-04-07T12:57:38;98679.34;;;8.31;100.00
1616;BME280;801;47.982;7.810;2023-04-07T13:00:06;98678.13;;;8.56;100.00
1616;BME280;801;47.982;7.810;2023-04-07T13:02:33;98679.97;;;8.38;100.00
1616;BME280;801;47.982;7.810;2023-04-07T13:05:00;98679.63;;;8.46;100.00
1616;BME280;801;47.982;7.810;2023-04-07T13:07:28;98686.00;;;8.45;100.00
1616;BME280;801;47.982;7.810;2023-04-07T13:09:55;98676.56;;;8.26;100.00
1616;BME280;801;47.982;7.810;2023-04-07T13:12:22;98678.13;;;8.56;100.00
1616;BME280;801;47.982;7.810;2023-04-07T13:14:49;98683.31;;;8.45;100.00
1616;BME280;801;47.982;7.810;2023-04-07T13:17:15;98687.44;;;8.36;100.00
1616;BME280;801;47.982;7.810;2023-04-07T13:19:42;98677.66;;;8.42;100.00
1616;BME280;801;47.982;7.810;2023-04-07T13:22:11;98687.69;;;8.35;100.00
1616;BME280;801;47.982;7.810;2023-04-07T13:24:39;98687.75;;;8.23;100.00
1616;BME280;801;47.982;7.810;2023-04-07T13:27:05;98680.78;;;8.22;100.00
1616;BME280;801;47.982;7.810;2023-04-07T13:29:32;98678.59;;;8.36;100.00
1616;BME280;801;47.982;7.810;2023-04-07T13:32:03;98681.28;;;8.52;100.00
1616;BME280;801;47.982;7.810;2023-04-07T13:34:31;98680.94;;;8.32;100.00
1616;BME280;801;47.982;7.810;2023-04-07T13:36:57;98684.41;;;8.44;100.00
1616;BME280;801;47.982;7.810;2023-04-07T13:39:26;98683.88;;;8.30;100.00